createdAt,value
2023-03-05T00:00:01.753Z,0.00
2023-03-05T00:01:01.751Z,0.00
2023-03-05T00:02:01.736Z,0.00
2023-03-05T00:03:01.684Z,0.00
2023-03-05T00:04:01.686Z,0.00
2023-03-05T00:05:01.675Z,0.00
2023-03-05T00:06:01.668Z,0.00
2023-03-05T00:07:01.632Z,0.00
2023-03-05T00:08:01.663Z,0.00
2023-03-05T00:09:01.624Z,0.00
2023-03-05T00:10:01.680Z,0.00
2023-03-05T00:11:01.601Z,0.00
2023-03-05T00:12:01.597Z,0.00
2023-03-05T00:13:01.580Z,0.00
2023-03-05T00:14:01.562Z,0.00
2023-03-05T00:15:01.573Z,0.00
2023-03-05T00:16:01.585Z,0.00
2023-03-05T00:17:01.557Z,0.00
2023-03-05T00:18:01.532Z,0.00
2023-03-05T00:19:01.510Z,0.00
2023-03-05T00:20:02.493Z,0.00
2023-03-05T00:21:01.501Z,0.00
2023-03-05T00:22:01.515Z,0.00
2023-03-05T00:23:01.472Z,0.00
2023-03-05T00:24:01.458Z,0.00
2023-03-05T00:25:01.439Z,0.00
2023-03-05T00:26:01.450Z,0.00
2023-03-05T00:27:01.440Z,0.00
2023-03-05T00:28:01.413Z,0.00
2023-03-05T00:29:01.397Z,0.00
2023-03-05T00:30:01.400Z,0.00
2023-03-05T00:31:01.439Z,0.00
2023-03-05T00:32:01.468Z,0.00
2023-03-05T00:33:01.365Z,0.00
2023-03-05T00:34:01.379Z,0.00
2023-03-05T00:35:01.346Z,0.00
2023-03-05T00:36:01.430Z,0.00
2023-03-05T00:37:01.313Z,0.00
2023-03-05T00:38:01.313Z,0.00
2023-03-05T00:39:01.297Z,0.00
2023-03-05T00:40:01.372Z,0.00
2023-03-05T00:41:01.295Z,0.00
2023-03-05T00:42:01.259Z,0.00
2023-03-05T00:43:01.252Z,0.00
2023-03-05T00:44:01.234Z,0.00
2023-03-05T00:45:01.256Z,0.00
2023-03-05T00:46:01.236Z,0.00
2023-03-05T00:47:01.214Z,0.00
2023-03-05T00:48:01.300Z,0.00
2023-03-05T00:49:01.189Z,0.00
2023-03-05T00:50:01.211Z,0.00
2023-03-05T00:51:01.167Z,0.00
2023-03-05T00:52:01.146Z,0.00
2023-03-05T00:53:01.145Z,0.00
2023-03-05T00:54:01.148Z,0.00
2023-03-05T00:55:01.176Z,0.00
2023-03-05T00:56:01.141Z,0.00
2023-03-05T00:57:01.123Z,0.00
2023-03-05T00:58:01.084Z,0.00
2023-03-05T00:59:01.082Z,0.00
2023-03-05T01:00:01.067Z,0.00
2023-03-05T01:01:01.066Z,0.00
2023-03-05T01:02:01.078Z,0.00
2023-03-05T01:03:01.023Z,0.00
2023-03-05T01:04:01.013Z,0.00
2023-03-05T01:05:01.009Z,0.00
2023-03-05T01:06:01.016Z,0.00
2023-03-05T01:07:01.018Z,0.00
2023-03-05T01:08:00.965Z,0.00
2023-03-05T01:09:00.973Z,0.00
2023-03-05T01:10:00.962Z,0.00
2023-03-05T01:11:00.942Z,0.00
2023-03-05T01:12:00.936Z,0.00
2023-03-05T01:13:00.914Z,0.00
2023-03-05T01:14:00.910Z,0.00
2023-03-05T01:15:00.891Z,0.00
2023-03-05T01:16:00.910Z,0.00
2023-03-05T01:17:00.868Z,0.00
2023-03-05T01:18:00.870Z,0.00
2023-03-05T01:19:00.845Z,0.00
2023-03-05T01:20:00.836Z,0.00
2023-03-05T01:21:00.834Z,0.00
2023-03-05T01:22:00.810Z,0.00
2023-03-05T01:23:00.802Z,0.00
2023-03-05T01:24:00.775Z,0.00
2023-03-05T01:25:00.776Z,0.00
2023-03-05T01:26:00.745Z,0.00
2023-03-05T01:27:00.744Z,0.00
2023-03-05T01:28:00.725Z,0.00
2023-03-05T01:29:00.712Z,0.00
2023-03-05T01:30:00.722Z,0.00
2023-03-05T01:31:00.690Z,0.00
2023-03-05T01:32:00.727Z,0.00
2023-03-05T01:33:00.682Z,0.00
2023-03-05T01:34:00.668Z,0.00
2023-03-05T01:35:00.694Z,0.00
2023-03-05T01:36:00.649Z,0.00
2023-03-05T01:37:00.683Z,0.00
2023-03-05T01:38:00.618Z,0.00
2023-03-05T01:39:00.627Z,0.00
2023-03-05T01:40:00.646Z,0.00
2023-03-05T01:41:00.593Z,0.00
2023-03-05T01:42:00.581Z,0.00
2023-03-05T01:43:00.565Z,0.00
2023-03-05T01:44:00.567Z,0.00
2023-03-05T01:45:00.735Z,0.00
2023-03-05T01:46:00.583Z,0.00
2023-03-05T01:47:00.529Z,0.00
2023-03-05T01:48:00.551Z,0.00
2023-03-05T01:49:00.512Z,0.00
2023-03-05T01:50:00.512Z,0.00
2023-03-05T01:51:00.589Z,0.00
2023-03-05T01:52:00.471Z,0.00
2023-03-05T01:53:00.464Z,0.00
2023-03-05T01:54:00.471Z,0.00
2023-03-05T01:55:00.486Z,0.00
2023-03-05T01:56:00.441Z,0.00
2023-03-05T01:57:00.408Z,0.00
2023-03-05T01:58:00.385Z,0.00
2023-03-05T01:59:00.401Z,0.00
2023-03-05T02:00:00.371Z,0.00
2023-03-05T02:01:00.416Z,0.00
2023-03-05T02:02:00.356Z,0.00
2023-03-05T02:03:00.349Z,0.00
2023-03-05T02:04:00.411Z,0.00
2023-03-05T02:05:00.326Z,0.00
2023-03-05T02:06:00.313Z,0.00
2023-03-05T02:07:00.297Z,0.00
2023-03-05T02:08:00.272Z,0.00
2023-03-05T02:09:00.273Z,0.00
2023-03-05T02:10:00.254Z,0.00
2023-03-05T02:11:00.258Z,0.00
2023-03-05T02:12:00.232Z,0.00
2023-03-05T02:13:00.230Z,0.00
2023-03-05T02:14:00.216Z,0.00
2023-03-05T02:15:00.206Z,0.00
2023-03-05T02:16:00.202Z,0.00
2023-03-05T02:17:00.197Z,0.00
2023-03-05T02:18:00.176Z,0.00
2023-03-05T02:19:00.169Z,0.00
2023-03-05T02:20:00.158Z,0.00
2023-03-05T02:21:00.157Z,0.00
2023-03-05T02:22:00.126Z,0.00
2023-03-05T02:23:00.128Z,0.00
2023-03-05T02:24:00.122Z,0.00
2023-03-05T02:25:00.107Z,0.00
2023-03-05T02:26:00.112Z,0.00
2023-03-05T02:27:00.088Z,0.00
2023-03-05T02:28:00.086Z,0.00
2023-03-05T02:29:00.090Z,0.00
2023-03-05T02:30:00.040Z,0.00
2023-03-05T02:31:00.047Z,0.00
2023-03-05T02:32:00.155Z,0.00
2023-03-05T02:33:00.029Z,0.00
2023-03-05T02:33:59.999Z,0.00
2023-03-05T02:35:00.001Z,0.00
2023-03-05T02:36:00.049Z,0.00
2023-03-05T02:36:59.970Z,0.00
2023-03-05T02:37:59.965Z,0.00
2023-03-05T02:38:59.963Z,0.00
2023-03-05T02:39:59.934Z,0.00
2023-03-05T02:40:59.945Z,0.00
2023-03-05T02:41:59.932Z,0.00
2023-03-05T02:42:59.908Z,0.00
2023-03-05T02:43:59.893Z,0.00
2023-03-05T02:44:59.895Z,0.00
2023-03-05T02:45:59.965Z,0.00
2023-03-05T02:46:59.870Z,0.00
2023-03-05T02:47:59.852Z,0.00
2023-03-05T02:48:59.844Z,0.00
2023-03-05T02:49:59.831Z,0.00
2023-03-05T02:50:59.841Z,0.00
2023-03-05T02:51:59.811Z,0.00
2023-03-05T02:52:59.802Z,0.00
2023-03-05T02:53:59.804Z,0.00
2023-03-05T02:54:59.800Z,0.00
2023-03-05T02:55:59.783Z,0.00
2023-03-05T02:56:59.786Z,0.00
2023-03-05T02:57:59.779Z,0.00
2023-03-05T02:58:59.744Z,0.00
2023-03-05T02:59:59.837Z,0.00
2023-03-05T03:00:59.758Z,0.00
2023-03-05T03:01:59.700Z,0.00
2023-03-05T03:02:59.774Z,0.00
2023-03-05T03:03:59.746Z,0.00
2023-03-05T03:04:59.673Z,0.00
2023-03-05T03:05:59.702Z,0.00
2023-03-05T03:06:59.651Z,0.00
2023-03-05T03:07:59.637Z,0.00
2023-03-05T03:08:59.629Z,0.00
2023-03-05T03:09:59.605Z,0.00
2023-03-05T03:10:59.626Z,0.00
2023-03-05T03:11:59.593Z,0.00
2023-03-05T03:12:59.624Z,0.00
2023-03-05T03:13:59.624Z,0.00
2023-03-05T03:14:59.594Z,0.00
2023-03-05T03:15:59.565Z,0.00
2023-03-05T03:16:59.649Z,0.00
2023-03-05T03:17:59.526Z,0.00
2023-03-05T03:18:59.524Z,0.00
2023-03-05T03:19:59.505Z,0.00
2023-03-05T03:20:59.520Z,0.00
2023-03-05T03:21:59.478Z,0.00
2023-03-05T03:22:59.496Z,0.00
2023-03-05T03:23:59.473Z,0.00
2023-03-05T03:24:59.448Z,0.00
2023-03-05T03:25:59.463Z,0.00
2023-03-05T03:26:59.465Z,0.00
2023-03-05T03:27:59.441Z,0.00
2023-03-05T03:28:59.407Z,0.00
2023-03-05T03:29:59.406Z,0.00
2023-03-05T03:30:59.440Z,0.00
2023-03-05T03:31:59.410Z,0.00
2023-03-05T03:32:59.362Z,0.00
2023-03-05T03:33:59.359Z,0.00
2023-03-05T03:34:59.351Z,0.00
2023-03-05T03:35:59.437Z,0.00
2023-03-05T03:36:59.322Z,0.00
2023-03-05T03:37:59.328Z,0.00
2023-03-05T03:38:59.305Z,0.00
2023-03-05T03:39:59.311Z,0.00
2023-03-05T03:40:59.404Z,0.00
2023-03-05T03:41:59.343Z,0.00
2023-03-05T03:42:59.254Z,0.00
2023-03-05T03:43:59.243Z,0.00
2023-03-05T03:44:59.243Z,0.00
2023-03-05T03:45:59.305Z,0.00
2023-03-05T03:46:59.213Z,0.00
2023-03-05T03:47:59.202Z,0.00
2023-03-05T03:48:59.199Z,0.00
2023-03-05T03:49:59.207Z,0.00
2023-03-05T03:50:59.208Z,0.00
2023-03-05T03:51:59.154Z,0.00
2023-03-05T03:52:59.159Z,0.00
2023-03-05T03:53:59.133Z,0.00
2023-03-05T03:54:59.133Z,0.00
2023-03-05T03:55:59.125Z,0.00
2023-03-05T03:56:59.113Z,0.00
2023-03-05T03:57:59.098Z,0.00
2023-03-05T03:58:59.095Z,0.00
2023-03-05T03:59:59.085Z,0.00
2023-03-05T04:00:59.072Z,0.00
2023-03-05T04:01:59.053Z,0.00
2023-03-05T04:02:59.053Z,0.00
2023-03-05T04:03:59.094Z,0.00
2023-03-05T04:04:59.026Z,0.00
2023-03-05T04:05:59.035Z,0.00
2023-03-05T04:06:59.006Z,0.00
2023-03-05T04:07:58.990Z,0.00
2023-03-05T04:08:58.976Z,0.00
2023-03-05T04:09:58.972Z,0.00
2023-03-05T04:10:58.982Z,0.00
2023-03-05T04:11:58.947Z,0.00
2023-03-05T04:12:58.952Z,0.00
2023-03-05T04:13:58.916Z,0.00
2023-03-05T04:14:58.918Z,0.00
2023-03-05T04:15:58.980Z,0.00
2023-03-05T04:16:58.904Z,0.00
2023-03-05T04:17:58.878Z,0.00
2023-03-05T04:18:58.877Z,0.00
2023-03-05T04:19:58.858Z,0.00
2023-03-05T04:20:58.869Z,0.00
2023-03-05T04:21:58.849Z,0.00
2023-03-05T04:22:58.828Z,0.00
2023-03-05T04:23:58.819Z,0.00
2023-03-05T04:24:58.811Z,0.00
2023-03-05T04:25:58.810Z,0.00
2023-03-05T04:26:58.791Z,0.00
2023-03-05T04:27:58.767Z,0.00
2023-03-05T04:28:58.764Z,0.00
2023-03-05T04:29:58.756Z,0.00
2023-03-05T04:30:58.778Z,0.00
2023-03-05T04:31:58.776Z,0.00
2023-03-05T04:32:58.714Z,0.00
2023-03-05T04:33:58.706Z,0.00
2023-03-05T04:34:58.697Z,0.00
2023-03-05T04:35:58.767Z,0.00
2023-03-05T04:36:58.681Z,0.00
2023-03-05T04:37:58.806Z,0.00
2023-03-05T04:38:58.659Z,0.00
2023-03-05T04:39:58.645Z,0.00
2023-03-05T04:40:58.659Z,0.00
2023-03-05T04:41:58.651Z,0.00
2023-03-05T04:42:58.613Z,0.00
2023-03-05T04:43:58.583Z,0.00
2023-03-05T04:44:58.582Z,0.00
2023-03-05T04:45:58.673Z,0.00
2023-03-05T04:46:58.585Z,0.00
2023-03-05T04:47:58.542Z,0.00
2023-03-05T04:48:58.541Z,0.00
2023-03-05T04:49:58.521Z,0.00
2023-03-05T04:50:58.520Z,0.00
2023-03-05T04:51:58.511Z,0.00
2023-03-05T04:52:58.495Z,0.00
2023-03-05T04:53:58.502Z,0.00
2023-03-05T04:54:58.470Z,0.00
2023-03-05T04:55:58.472Z,0.00
2023-03-05T04:56:58.444Z,0.00
2023-03-05T04:57:58.465Z,0.00
2023-03-05T04:58:58.433Z,0.00
2023-03-05T04:59:58.413Z,0.00
2023-03-05T05:00:58.402Z,0.00
2023-03-05T05:01:58.584Z,0.00
2023-03-05T05:02:58.516Z,0.00
2023-03-05T05:03:58.363Z,0.00
2023-03-05T05:04:58.363Z,0.00
2023-03-05T05:05:58.346Z,0.00
2023-03-05T05:06:58.334Z,0.00
2023-03-05T05:07:58.447Z,0.00
2023-03-05T05:08:58.325Z,0.00
2023-03-05T05:09:58.362Z,0.00
2023-03-05T05:10:58.306Z,0.00
2023-03-05T05:11:58.292Z,0.00
2023-03-05T05:12:58.276Z,0.00
2023-03-05T05:13:58.257Z,0.00
2023-03-05T05:14:58.245Z,0.00
2023-03-05T05:15:58.342Z,0.00
2023-03-05T05:16:58.246Z,0.00
2023-03-05T05:17:58.224Z,0.00
2023-03-05T05:18:58.221Z,0.00
2023-03-05T05:19:58.365Z,0.00
2023-03-05T05:20:58.190Z,0.00
2023-03-05T05:21:58.177Z,0.00
2023-03-05T05:22:58.165Z,0.00
2023-03-05T05:23:58.165Z,0.00
2023-03-05T05:24:58.136Z,0.00
2023-03-05T05:25:58.193Z,0.00
2023-03-05T05:26:58.125Z,0.00
2023-03-05T05:27:58.206Z,0.00
2023-03-05T05:28:58.096Z,0.00
2023-03-05T05:29:58.077Z,0.00
2023-03-05T05:30:58.079Z,0.00
2023-03-05T05:31:58.078Z,0.00
2023-03-05T05:32:58.087Z,0.00
2023-03-05T05:33:58.039Z,0.00
2023-03-05T05:34:58.050Z,0.00
2023-03-05T05:35:58.147Z,0.00
2023-03-05T05:36:58.008Z,0.00
2023-03-05T05:37:58.020Z,0.00
2023-03-05T05:38:57.990Z,0.00
2023-03-05T05:39:58.071Z,0.00
2023-03-05T05:40:57.991Z,0.00
2023-03-05T05:41:58.041Z,0.00
2023-03-05T05:42:57.961Z,0.00
2023-03-05T05:43:58.111Z,4.00
2023-03-05T05:44:57.983Z,4.00
2023-03-05T05:45:58.149Z,0.00
2023-03-05T05:46:57.909Z,4.00
2023-03-05T05:47:57.904Z,4.00
2023-03-05T05:48:57.885Z,4.00
2023-03-05T05:49:57.963Z,8.00
2023-03-05T05:50:57.878Z,8.00
2023-03-05T05:51:57.986Z,8.00
2023-03-05T05:52:57.849Z,8.00
2023-03-05T05:53:57.867Z,8.00
2023-03-05T05:54:57.816Z,12.00
2023-03-05T05:55:57.826Z,12.00
2023-03-05T05:56:57.796Z,16.00
2023-03-05T05:57:57.825Z,16.00
2023-03-05T05:58:57.775Z,24.00
2023-03-05T05:59:57.879Z,28.00
2023-03-05T06:00:57.765Z,28.00
2023-03-05T06:01:57.848Z,32.00
2023-03-05T06:02:57.766Z,40.00
2023-03-05T06:03:57.740Z,44.00
2023-03-05T06:04:58.316Z,48.00
2023-03-05T06:05:57.724Z,56.00
2023-03-05T06:06:57.686Z,64.00
2023-03-05T06:07:57.786Z,72.00
2023-03-05T06:08:57.682Z,84.00
2023-03-05T06:09:57.656Z,84.00
2023-03-05T06:10:57.645Z,92.00
2023-03-05T06:11:57.638Z,100.00
2023-03-05T06:12:57.618Z,108.00
2023-03-05T06:13:57.622Z,116.00
2023-03-05T06:14:57.607Z,128.00
2023-03-05T06:15:57.655Z,140.00
2023-03-05T06:16:57.594Z,148.00
2023-03-05T06:17:57.568Z,164.00
2023-03-05T06:18:57.557Z,180.00
2023-03-05T06:19:57.560Z,192.00
2023-03-05T06:20:57.569Z,208.00
2023-03-05T06:21:57.519Z,232.00
2023-03-05T06:22:57.508Z,256.00
2023-03-05T06:23:57.508Z,272.00
2023-03-05T06:24:57.490Z,284.00
2023-03-05T06:25:57.498Z,296.00
2023-03-05T06:26:57.478Z,312.00
2023-03-05T06:27:57.481Z,336.00
2023-03-05T06:28:57.457Z,368.00
2023-03-05T06:29:57.476Z,400.00
2023-03-05T06:30:57.524Z,444.00
2023-03-05T06:31:57.466Z,492.00
2023-03-05T06:32:57.410Z,528.00
2023-03-05T06:33:57.397Z,560.00
2023-03-05T06:34:57.389Z,592.00
2023-03-05T06:35:57.985Z,604.00
2023-03-05T06:36:57.369Z,616.00
2023-03-05T06:37:57.338Z,640.00
2023-03-05T06:38:57.334Z,660.00
2023-03-05T06:39:57.319Z,680.00
2023-03-05T06:40:57.328Z,716.00
2023-03-05T06:41:57.298Z,776.00
2023-03-05T06:42:57.298Z,848.00
2023-03-05T06:43:57.287Z,912.00
2023-03-05T06:44:57.280Z,964.00
2023-03-05T06:45:57.367Z,1012.00
2023-03-05T06:46:57.248Z,1076.00
2023-03-05T06:47:57.238Z,1152.00
2023-03-05T06:48:57.227Z,1232.00
2023-03-05T06:49:57.218Z,1324.00
2023-03-05T06:50:57.218Z,1432.00
2023-03-05T06:51:57.200Z,1552.00
2023-03-05T06:52:57.180Z,1624.00
2023-03-05T06:53:57.184Z,1676.00
2023-03-05T06:54:57.158Z,1692.00
2023-03-05T06:55:57.170Z,1692.00
2023-03-05T06:56:57.139Z,1652.00
2023-03-05T06:57:57.128Z,1572.00
2023-03-05T06:58:57.120Z,1552.00
2023-03-05T06:59:57.113Z,1536.00
2023-03-05T07:00:57.149Z,1540.00
2023-03-05T07:01:57.100Z,1580.00
2023-03-05T07:02:57.082Z,1608.00
2023-03-05T07:03:57.069Z,1620.00
2023-03-05T07:04:57.057Z,1632.00
2023-03-05T07:05:57.059Z,1652.00
2023-03-05T07:06:57.026Z,1684.00
2023-03-05T07:07:57.020Z,1700.00
2023-03-05T07:08:57.025Z,1708.00
2023-03-05T07:09:57.005Z,1760.00
2023-03-05T07:10:57.002Z,1852.00
2023-03-05T07:11:56.988Z,1916.00
2023-03-05T07:12:56.981Z,2000.00
2023-03-05T07:13:56.959Z,2076.00
2023-03-05T07:14:56.949Z,2156.00
2023-03-05T07:15:57.028Z,2296.00
2023-03-05T07:16:56.923Z,2504.00
2023-03-05T07:17:56.922Z,2756.00
2023-03-05T07:18:56.899Z,3056.00
2023-03-05T07:19:56.892Z,3400.00
2023-03-05T07:20:56.890Z,3732.00
2023-03-05T07:21:56.881Z,4004.00
2023-03-05T07:22:56.861Z,4188.00
2023-03-05T07:23:56.863Z,4216.00
2023-03-05T07:24:56.836Z,4176.00
2023-03-05T07:25:56.841Z,4292.00
2023-03-05T07:26:56.813Z,4440.00
2023-03-05T07:27:56.812Z,4396.00
2023-03-05T07:28:56.791Z,4524.00
2023-03-05T07:29:56.785Z,4636.00
2023-03-05T07:30:56.811Z,4760.00
2023-03-05T07:31:56.770Z,4944.00
2023-03-05T07:32:56.768Z,5072.00
2023-03-05T07:33:56.731Z,5036.00
2023-03-05T07:34:56.735Z,4980.00
2023-03-05T07:35:56.801Z,5112.00
2023-03-05T07:36:56.702Z,5416.00
2023-03-05T07:37:56.698Z,5804.00
2023-03-05T07:38:56.688Z,6244.00
2023-03-05T07:39:56.665Z,6912.00
2023-03-05T07:40:56.685Z,7588.00
2023-03-05T07:41:56.663Z,8076.00
2023-03-05T07:42:56.843Z,8556.00
2023-03-05T07:43:57.137Z,9056.00
2023-03-05T07:44:56.713Z,9528.00
2023-03-05T07:45:56.838Z,9980.00
2023-03-05T07:46:56.660Z,10160.00
2023-03-05T07:47:56.922Z,9808.00
2023-03-05T07:48:56.983Z,9396.00
2023-03-05T07:49:56.673Z,9040.00
2023-03-05T07:50:56.693Z,8596.00
2023-03-05T07:51:56.567Z,8272.00
2023-03-05T07:52:56.760Z,8120.00
2023-03-05T07:53:56.570Z,8092.00
2023-03-05T07:54:56.637Z,8180.00
2023-03-05T07:55:56.628Z,8404.00
2023-03-05T07:56:56.514Z,8664.00
2023-03-05T07:57:56.506Z,8948.00
2023-03-05T07:58:56.558Z,9496.00
2023-03-05T07:59:56.504Z,10048.00
2023-03-05T08:00:56.519Z,10324.00
2023-03-05T08:01:56.666Z,10604.00
2023-03-05T08:02:56.464Z,11232.00
2023-03-05T08:03:56.516Z,12252.00
2023-03-05T08:04:56.472Z,13528.00
2023-03-05T08:05:56.428Z,14404.00
2023-03-05T08:06:56.602Z,14416.00
2023-03-05T08:07:56.378Z,13592.00
2023-03-05T08:08:56.457Z,12224.00
2023-03-05T08:09:56.374Z,10836.00
2023-03-05T08:10:56.447Z,9536.00
2023-03-05T08:11:56.346Z,8808.00
2023-03-05T08:12:56.383Z,8144.00
2023-03-05T08:13:56.390Z,7500.00
2023-03-05T08:14:56.337Z,7156.00
2023-03-05T08:15:56.380Z,6956.00
2023-03-05T08:16:56.344Z,6916.00
2023-03-05T08:17:56.497Z,7044.00
2023-03-05T08:18:56.279Z,7084.00
2023-03-05T08:19:56.393Z,7012.00
2023-03-05T08:20:56.472Z,7012.00
2023-03-05T08:21:56.541Z,7132.00
2023-03-05T08:22:56.321Z,7140.00
2023-03-05T08:23:56.221Z,7104.00
2023-03-05T08:24:56.223Z,7252.00
2023-03-05T08:25:56.290Z,7548.00
2023-03-05T08:26:56.218Z,7868.00
2023-03-05T08:27:56.182Z,7996.00
2023-03-05T08:28:56.221Z,7892.00
2023-03-05T08:29:56.159Z,7784.00
2023-03-05T08:30:56.211Z,7704.00
2023-03-05T08:31:56.269Z,7656.00
2023-03-05T08:32:56.204Z,7584.00
2023-03-05T08:33:56.168Z,7528.00
2023-03-05T08:34:56.115Z,7292.00
2023-03-05T08:35:56.159Z,7144.00
2023-03-05T08:36:56.129Z,7172.00
2023-03-05T08:37:56.125Z,7300.00
2023-03-05T08:38:56.405Z,7400.00
2023-03-05T08:39:56.241Z,7524.00
2023-03-05T08:40:56.186Z,7620.00
2023-03-05T08:41:56.221Z,7552.00
2023-03-05T08:42:56.069Z,7540.00
2023-03-05T08:43:56.002Z,7668.00
2023-03-05T08:44:55.989Z,7724.00
2023-03-05T08:45:56.091Z,7728.00
2023-03-05T08:46:56.282Z,8024.00
2023-03-05T08:47:55.984Z,8236.00
2023-03-05T08:48:56.100Z,8324.00
2023-03-05T08:49:55.965Z,8284.00
2023-03-05T08:50:56.122Z,8232.00
2023-03-05T08:51:55.980Z,8276.00
2023-03-05T08:52:55.902Z,8436.00
2023-03-05T08:53:55.904Z,8752.00
2023-03-05T08:54:55.887Z,9080.00
2023-03-05T08:55:55.881Z,8920.00
2023-03-05T08:56:55.956Z,8120.00
2023-03-05T08:57:55.976Z,7556.00
2023-03-05T08:58:55.955Z,7796.00
2023-03-05T08:59:55.853Z,8288.00
2023-03-05T09:00:55.939Z,8556.00
2023-03-05T09:01:56.085Z,9076.00
2023-03-05T09:02:55.933Z,9536.00
2023-03-05T09:03:55.883Z,9664.00
2023-03-05T09:04:55.821Z,9620.00
2023-03-05T09:05:55.814Z,9824.00
2023-03-05T09:06:56.035Z,10104.00
2023-03-05T09:07:55.746Z,9796.00
2023-03-05T09:08:56.040Z,9872.00
2023-03-05T09:09:55.698Z,10368.00
2023-03-05T09:10:55.723Z,10884.00
2023-03-05T09:11:56.247Z,11356.00
2023-03-05T09:12:55.721Z,11796.00
2023-03-05T09:13:55.727Z,12072.00
2023-03-05T09:14:55.674Z,12120.00
2023-03-05T09:15:55.804Z,12008.00
2023-03-05T09:16:56.253Z,12084.00
2023-03-05T09:17:55.855Z,12100.00
2023-03-05T09:18:55.636Z,11972.00
2023-03-05T09:19:55.736Z,11908.00
2023-03-05T09:20:55.709Z,11932.00
2023-03-05T09:21:57.113Z,11892.00
2023-03-05T09:22:55.748Z,11792.00
2023-03-05T09:23:55.567Z,11432.00
2023-03-05T09:24:55.809Z,10936.00
2023-03-05T09:25:55.727Z,10696.00
2023-03-05T09:26:55.644Z,10704.00
2023-03-05T09:27:56.029Z,10664.00
2023-03-05T09:28:55.651Z,10348.00
2023-03-05T09:29:55.659Z,10176.00
2023-03-05T09:30:55.519Z,11128.00
2023-03-05T09:31:56.125Z,11556.00
2023-03-05T09:32:55.508Z,12516.00
2023-03-05T09:33:56.262Z,12908.00
2023-03-05T09:34:55.450Z,12612.00
2023-03-05T09:35:55.590Z,12340.00
2023-03-05T09:36:55.568Z,12168.00
2023-03-05T09:37:55.480Z,12576.00
2023-03-05T09:38:55.488Z,12196.00
2023-03-05T09:39:55.431Z,11972.00
2023-03-05T09:40:55.559Z,12336.00
2023-03-05T09:41:55.600Z,12400.00
2023-03-05T09:42:55.402Z,11856.00
2023-03-05T09:43:55.338Z,10912.00
2023-03-05T09:44:55.337Z,10208.00
2023-03-05T09:45:55.357Z,10008.00
2023-03-05T09:46:55.837Z,10372.00
2023-03-05T09:47:55.430Z,11196.00
2023-03-05T09:48:55.298Z,12420.00
2023-03-05T09:49:55.365Z,13980.00
2023-03-05T09:50:55.312Z,15520.00
2023-03-05T09:51:55.315Z,16684.00
2023-03-05T09:52:55.402Z,18080.00
2023-03-05T09:53:55.312Z,19264.00
2023-03-05T09:54:55.357Z,20480.00
2023-03-05T09:55:55.201Z,22272.00
2023-03-05T09:56:55.317Z,24768.00
2023-03-05T09:57:55.167Z,26304.00
2023-03-05T09:58:56.242Z,28064.00
2023-03-05T09:59:55.155Z,30208.00
2023-03-05T10:00:55.134Z,35648.00
2023-03-05T10:01:55.143Z,37056.00
2023-03-05T10:02:55.177Z,43232.00
2023-03-05T10:03:55.190Z,85664.00
2023-03-05T10:04:55.126Z,86432.00
2023-03-05T10:05:55.088Z,50016.00
2023-03-05T10:06:55.087Z,48672.00
2023-03-05T10:07:55.072Z,58368.00
2023-03-05T10:08:55.043Z,45312.00
2023-03-05T10:09:55.054Z,35584.00
2023-03-05T10:10:55.036Z,35328.00
2023-03-05T10:11:55.067Z,35776.00
2023-03-05T10:12:55.006Z,42048.00
2023-03-05T10:13:54.999Z,23488.00
2023-03-05T10:14:54.981Z,22176.00
2023-03-05T10:15:54.970Z,20928.00
2023-03-05T10:16:55.012Z,18560.00
2023-03-05T10:17:54.947Z,16032.00
2023-03-05T10:18:54.937Z,14208.00
2023-03-05T10:19:54.942Z,12200.00
2023-03-05T10:20:54.913Z,10196.00
2023-03-05T10:21:54.913Z,8748.00
2023-03-05T10:22:54.896Z,7412.00
2023-03-05T10:23:54.912Z,6472.00
2023-03-05T10:24:54.859Z,6304.00
2023-03-05T10:25:54.867Z,6500.00
2023-03-05T10:26:54.892Z,6368.00
2023-03-05T10:27:54.841Z,5896.00
2023-03-05T10:28:54.828Z,5580.00
2023-03-05T10:29:54.832Z,5568.00
2023-03-05T10:30:54.812Z,5976.00
2023-03-05T10:31:54.831Z,6668.00
2023-03-05T10:32:54.781Z,7196.00
2023-03-05T10:33:54.901Z,7176.00
2023-03-05T10:34:54.761Z,7248.00
2023-03-05T10:35:54.819Z,7632.00
2023-03-05T10:36:56.219Z,8624.00
2023-03-05T10:37:54.729Z,9664.00
2023-03-05T10:38:54.729Z,10016.00
2023-03-05T10:39:54.729Z,9992.00
2023-03-05T10:40:54.694Z,9872.00
2023-03-05T10:41:54.691Z,9832.00
2023-03-05T10:42:54.675Z,10036.00
2023-03-05T10:43:54.665Z,10464.00
2023-03-05T10:44:54.658Z,10868.00
2023-03-05T10:45:54.694Z,10760.00
2023-03-05T10:46:55.989Z,10432.00
2023-03-05T10:47:54.641Z,10544.00
2023-03-05T10:48:54.602Z,11048.00
2023-03-05T10:49:54.624Z,11416.00
2023-03-05T10:50:54.582Z,11608.00
2023-03-05T10:51:54.580Z,11836.00
2023-03-05T10:52:54.565Z,12140.00
2023-03-05T10:53:54.554Z,12124.00
2023-03-05T10:54:54.553Z,11368.00
2023-03-05T10:55:54.535Z,10252.00
2023-03-05T10:56:54.526Z,9876.00
2023-03-05T10:57:54.504Z,10124.00
2023-03-05T10:58:54.504Z,10036.00
2023-03-05T10:59:54.527Z,9172.00
2023-03-05T11:00:54.616Z,7860.00
2023-03-05T11:01:54.464Z,7260.00
2023-03-05T11:02:54.542Z,7732.00
2023-03-05T11:03:54.442Z,8520.00
2023-03-05T11:04:54.486Z,8828.00
2023-03-05T11:05:54.423Z,8880.00
2023-03-05T11:06:54.407Z,8860.00
2023-03-05T11:07:54.413Z,9084.00
2023-03-05T11:08:54.404Z,9624.00
2023-03-05T11:09:54.374Z,9928.00
2023-03-05T11:10:54.354Z,9820.00
2023-03-05T11:11:54.363Z,9516.00
2023-03-05T11:12:54.359Z,9140.00
2023-03-05T11:13:54.336Z,9000.00
2023-03-05T11:14:54.312Z,8476.00
2023-03-05T11:15:54.349Z,7740.00
2023-03-05T11:16:54.294Z,7232.00
2023-03-05T11:17:54.297Z,6976.00
2023-03-05T11:18:54.272Z,6652.00
2023-03-05T11:19:54.274Z,6536.00
2023-03-05T11:20:54.256Z,6808.00
2023-03-05T11:21:54.243Z,7532.00
2023-03-05T11:22:54.233Z,8104.00
2023-03-05T11:23:54.222Z,8264.00
2023-03-05T11:24:54.202Z,8208.00
2023-03-05T11:25:54.195Z,8128.00
2023-03-05T11:26:54.182Z,8064.00
2023-03-05T11:27:54.852Z,7728.00
2023-03-05T11:28:54.162Z,7476.00
2023-03-05T11:29:54.159Z,7740.00
2023-03-05T11:30:54.168Z,7968.00
2023-03-05T11:31:54.146Z,8012.00
2023-03-05T11:32:54.143Z,8456.00
2023-03-05T11:33:54.112Z,8188.00
2023-03-05T11:34:54.112Z,7140.00
2023-03-05T11:35:54.125Z,6536.00
2023-03-05T11:36:54.076Z,6688.00
2023-03-05T11:37:54.074Z,6776.00
2023-03-05T11:38:54.055Z,6640.00
2023-03-05T11:39:54.054Z,6316.00
2023-03-05T11:40:54.034Z,5732.00
2023-03-05T11:41:54.030Z,5820.00
2023-03-05T11:42:54.006Z,6816.00
2023-03-05T11:43:54.007Z,8932.00
2023-03-05T11:44:53.998Z,11200.00
2023-03-05T11:45:54.022Z,11012.00
2023-03-05T11:46:53.966Z,11440.00
2023-03-05T11:47:53.980Z,14032.00
2023-03-05T11:48:53.944Z,16672.00
2023-03-05T11:49:53.945Z,18688.00
2023-03-05T11:50:53.918Z,19616.00
2023-03-05T11:51:53.913Z,20160.00
2023-03-05T11:52:53.917Z,21120.00
2023-03-05T11:53:53.891Z,22432.00
2023-03-05T11:54:53.887Z,24192.00
2023-03-05T11:55:53.871Z,25792.00
2023-03-05T11:56:53.862Z,27328.00
2023-03-05T11:57:53.859Z,29280.00
2023-03-05T11:58:53.841Z,31264.00
2023-03-05T11:59:53.837Z,32800.00
2023-03-05T12:00:53.811Z,32512.00
2023-03-05T12:01:53.812Z,29376.00
2023-03-05T12:02:53.874Z,23744.00
2023-03-05T12:03:53.833Z,19424.00
2023-03-05T12:04:53.800Z,20672.00
2023-03-05T12:05:53.767Z,24640.00
2023-03-05T12:06:53.756Z,27296.00
2023-03-05T12:07:53.746Z,28160.00
2023-03-05T12:08:53.737Z,22400.00
2023-03-05T12:09:53.767Z,19200.00
2023-03-05T12:10:53.721Z,16328.00
2023-03-05T12:11:53.708Z,15892.00
2023-03-05T12:12:53.698Z,17408.00
2023-03-05T12:13:53.679Z,18688.00
2023-03-05T12:14:53.677Z,18912.00
2023-03-05T12:15:53.662Z,18144.00
2023-03-05T12:16:53.662Z,17344.00
2023-03-05T12:17:53.659Z,17088.00
2023-03-05T12:18:53.640Z,17216.00
2023-03-05T12:19:53.625Z,17472.00
2023-03-05T12:20:53.681Z,17376.00
2023-03-05T12:21:53.591Z,16588.00
2023-03-05T12:22:53.591Z,15316.00
2023-03-05T12:23:53.574Z,14192.00
2023-03-05T12:24:53.573Z,13124.00
2023-03-05T12:25:53.541Z,11712.00
2023-03-05T12:26:53.559Z,10276.00
2023-03-05T12:27:53.535Z,10152.00
2023-03-05T12:28:53.523Z,10348.00
2023-03-05T12:29:53.504Z,10256.00
2023-03-05T12:30:53.497Z,10096.00
2023-03-05T12:31:53.534Z,9800.00
2023-03-05T12:32:53.503Z,9344.00
2023-03-05T12:33:53.460Z,8632.00
2023-03-05T12:34:53.454Z,8168.00